createdAt,value
2022-12-19T00:02:44.449Z,6.72
2022-12-19T00:05:47.854Z,5.53
2022-12-19T00:08:51.823Z,6.30
2022-12-19T00:11:53.786Z,6.07
2022-12-19T00:14:55.218Z,5.35
2022-12-19T00:17:58.925Z,4.05
2022-12-19T00:21:04.354Z,6.15
2022-12-19T00:24:20.398Z,4.22
2022-12-19T00:27:22.500Z,4.95
2022-12-19T00:30:24.016Z,6.43
2022-12-19T00:33:26.250Z,5.15
2022-12-19T00:36:30.004Z,5.22
2022-12-19T00:39:31.519Z,5.60
2022-12-19T00:42:33.046Z,4.50
2022-12-19T00:45:38.116Z,4.20
2022-12-19T00:48:39.887Z,5.05
2022-12-19T00:51:41.407Z,5.00
2022-12-19T00:54:43.392Z,6.85
2022-12-19T00:57:45.083Z,4.53
2022-12-19T01:00:46.645Z,3.97
2022-12-19T01:04:25.975Z,4.95
2022-12-19T01:07:10.557Z,4.30
2022-12-19T01:10:12.008Z,4.82
2022-12-19T01:13:15.119Z,6.05
2022-12-19T01:16:16.599Z,3.97
2022-12-19T01:19:20.139Z,5.50
2022-12-19T01:22:21.642Z,4.10
2022-12-19T01:25:23.083Z,4.15
2022-12-19T01:28:24.867Z,4.05
2022-12-19T01:31:28.018Z,4.68
2022-12-19T01:34:30.232Z,4.15
2022-12-19T01:37:32.374Z,6.55
2022-12-19T01:40:34.862Z,6.45
2022-12-19T01:43:57.615Z,3.60
2022-12-19T01:47:00.752Z,5.75
2022-12-19T01:50:03.538Z,3.83
2022-12-19T01:53:08.602Z,3.55
2022-12-19T01:56:11.243Z,3.50
2022-12-19T01:59:41.435Z,4.53
2022-12-19T02:02:56.082Z,5.35
2022-12-19T08:28:44.797Z,5.47
2022-12-19T08:31:46.258Z,7.30
2022-12-19T08:34:48.225Z,3.85
2022-12-19T08:37:49.700Z,3.95
2022-12-19T08:40:54.535Z,4.53
2022-12-19T08:43:56.203Z,5.15
2022-12-19T08:46:57.749Z,5.47
2022-12-19T08:49:59.280Z,6.00
2022-12-19T08:53:00.723Z,4.88
2022-12-19T08:56:07.563Z,3.28
2022-12-19T08:59:09.046Z,3.03
2022-12-19T09:02:11.364Z,6.80
2022-12-19T09:06:00.675Z,4.65
2022-12-19T09:08:35.761Z,5.88
2022-12-19T09:11:45.365Z,4.65
2022-12-19T09:14:49.994Z,3.65
2022-12-19T09:17:51.462Z,5.40
2022-12-19T09:20:56.372Z,6.22
2022-12-19T09:24:07.162Z,4.55
2022-12-19T09:27:09.285Z,3.50
2022-12-19T09:30:12.688Z,5.65
2022-12-19T09:33:14.224Z,6.30
2022-12-19T09:36:23.017Z,5.55
2022-12-19T09:39:24.564Z,8.43
2022-12-19T09:42:58.621Z,4.47
2022-12-19T09:46:08.522Z,4.38
2022-12-19T09:49:16.942Z,3.27
2022-12-19T09:52:44.946Z,4.03
2022-12-19T09:55:47.751Z,4.97
2022-12-19T09:59:00.356Z,3.78
2022-12-19T10:02:17.698Z,3.47
2022-12-19T10:06:04.656Z,3.72
2022-12-19T10:09:20.583Z,3.40
2022-12-19T10:12:47.697Z,7.10
2022-12-19T10:16:04.774Z,3.72
2022-12-19T10:19:09.372Z,3.83
2022-12-19T10:22:23.065Z,3.53
2022-12-19T10:25:30.611Z,4.45
2022-12-19T10:28:53.423Z,3.38
2022-12-19T10:32:02.041Z,4.53
2022-12-19T10:35:13.251Z,3.10
2022-12-19T10:38:24.155Z,3.95
2022-12-19T10:41:28.466Z,3.65
2022-12-19T10:44:32.218Z,3.78
2022-12-19T10:47:33.832Z,3.47
2022-12-19T10:50:35.914Z,4.05
2022-12-19T10:53:37.531Z,3.85
2022-12-19T10:56:39.044Z,3.55
2022-12-19T10:59:57.151Z,2.92
2022-12-19T11:03:13.164Z,4.30
2022-12-19T11:06:43.303Z,4.78
2022-12-19T11:09:48.863Z,3.97
2022-12-19T11:19:24.086Z,3.92
2022-12-19T11:24:19.635Z,2.80
2022-12-19T11:29:34.919Z,6.35
2022-12-19T11:29:40.133Z,4.18
2022-12-19T11:30:43.937Z,5.15
2022-12-19T11:34:52.464Z,16.83
2022-12-19T11:37:56.071Z,5.43
2022-12-19T11:41:01.607Z,11.82
2022-12-19T11:44:11.369Z,22.35
2022-12-19T11:47:32.401Z,10.23
2022-12-19T11:50:43.445Z,20.73
2022-12-19T11:54:03.282Z,14.23
2022-12-19T11:57:04.809Z,11.57
2022-12-19T12:00:11.547Z,8.90
2022-12-19T12:03:41.090Z,6.68
2022-12-19T12:06:52.000Z,10.05
2022-12-19T12:15:51.046Z,14.27
2022-12-19T12:22:18.311Z,16.10
2022-12-19T12:31:01.643Z,9.25
2022-12-19T12:31:07.691Z,12.25
2022-12-19T12:31:50.445Z,7.43
2022-12-19T12:32:02.268Z,6.22
2022-12-19T12:35:45.387Z,8.30
2022-12-19T12:39:34.203Z,11.75
2022-12-19T12:42:43.169Z,5.28
2022-12-19T12:45:45.421Z,8.40
2022-12-19T12:48:57.205Z,12.15
2022-12-19T12:52:01.498Z,12.93
2022-12-19T12:55:06.129Z,10.88
2022-12-19T12:58:54.081Z,11.63
2022-12-19T13:02:23.269Z,11.00
2022-12-19T13:05:40.530Z,13.95
2022-12-19T13:08:49.505Z,12.75
2022-12-19T13:12:13.796Z,18.20
2022-12-19T13:15:27.268Z,24.25
2022-12-19T13:18:30.565Z,19.52
2022-12-19T13:22:03.977Z,17.40
2022-12-19T13:25:34.336Z,24.48
2022-12-19T13:28:39.547Z,24.27
2022-12-19T13:32:07.747Z,18.42
2022-12-19T13:35:49.947Z,23.20
2022-12-19T13:39:55.642Z,28.65
2022-12-19T13:42:35.486Z,22.02
2022-12-19T13:45:40.660Z,24.33
2022-12-19T13:48:47.722Z,27.77
2022-12-19T13:51:53.308Z,23.05
2022-12-19T13:54:59.246Z,22.70
2022-12-19T13:58:04.372Z,20.63
2022-12-19T14:01:21.495Z,16.85
2022-12-19T14:04:32.656Z,19.20
2022-12-19T14:07:39.248Z,18.13
2022-12-19T14:11:40.941Z,16.15
2022-12-19T14:14:34.086Z,17.10
2022-12-19T14:17:35.588Z,17.42
2022-12-19T14:22:07.036Z,19.48
2022-12-19T14:24:09.594Z,17.67
2022-12-19T14:28:25.686Z,14.20
2022-12-19T14:30:43.552Z,12.00
2022-12-19T14:34:04.699Z,12.82
2022-12-19T14:37:31.601Z,12.25
2022-12-19T14:41:08.895Z,14.90
2022-12-19T14:52:08.197Z,16.08
2022-12-19T14:54:02.813Z,14.18
2022-12-19T14:54:32.218Z,11.60
2022-12-19T14:58:52.606Z,11.32
2022-12-19T15:01:25.110Z,9.20
2022-12-19T15:04:51.347Z,12.95
2022-12-19T15:07:57.890Z,10.63
2022-12-19T15:11:44.421Z,12.77
2022-12-19T15:14:59.085Z,10.77
2022-12-19T15:18:16.005Z,11.27
2022-12-19T15:21:17.422Z,10.85
2022-12-19T15:24:19.166Z,6.78
2022-12-19T15:27:20.933Z,13.27
2022-12-19T15:30:22.669Z,14.73
2022-12-19T15:33:24.134Z,8.95
2022-12-19T15:36:25.678Z,14.77
2022-12-19T15:39:29.663Z,7.60
2022-12-19T15:42:31.415Z,9.05
2022-12-19T15:45:33.323Z,9.68
2022-12-19T15:48:39.173Z,8.73
2022-12-19T15:51:40.927Z,9.30
2022-12-19T15:54:50.889Z,9.80
2022-12-19T15:57:59.669Z,10.18
2022-12-19T16:01:03.786Z,10.68
2022-12-19T16:04:13.157Z,12.25
2022-12-19T16:07:17.132Z,12.05
2022-12-19T16:10:18.717Z,8.73
2022-12-19T16:13:23.649Z,7.18
2022-12-19T16:16:25.289Z,10.00
2022-12-19T16:19:29.503Z,11.43
2022-12-19T16:22:30.959Z,9.98
2022-12-19T16:25:42.422Z,17.13
2022-12-19T16:28:43.869Z,8.57
2022-12-19T16:31:45.389Z,13.30
2022-12-19T16:34:46.986Z,15.18
2022-12-19T16:37:49.400Z,13.38
2022-12-19T16:40:51.965Z,8.57
2022-12-19T16:43:53.453Z,16.20
2022-12-19T16:46:54.975Z,15.27
2022-12-19T16:49:56.494Z,6.63
2022-12-19T16:52:57.989Z,7.53
2022-12-19T16:55:59.884Z,19.05
2022-12-19T16:59:04.900Z,6.50
2022-12-19T17:02:40.551Z,7.75
2022-12-19T17:05:42.262Z,8.23
2022-12-19T17:08:44.867Z,7.82
2022-12-19T17:11:50.185Z,7.60
2022-12-19T17:14:51.660Z,5.75
2022-12-19T17:17:54.311Z,5.13
2022-12-19T17:20:56.017Z,4.68
2022-12-19T17:23:57.546Z,7.05
2022-12-19T17:26:58.990Z,6.82
2022-12-19T17:30:00.438Z,5.63
2022-12-19T17:33:03.299Z,7.82
2022-12-19T17:36:06.852Z,5.88
2022-12-19T17:39:29.795Z,5.82
2022-12-19T17:42:37.124Z,6.13
2022-12-19T17:45:39.394Z,5.22
2022-12-19T17:48:40.920Z,5.85
2022-12-19T17:51:45.920Z,6.82
2022-12-19T17:54:47.620Z,6.65
2022-12-19T17:57:50.459Z,5.28
2022-12-19T18:00:52.564Z,4.97
2022-12-19T18:03:56.083Z,5.95
2022-12-19T18:06:57.552Z,5.95
2022-12-19T18:09:59.418Z,6.35
2022-12-19T18:13:01.370Z,4.05
2022-12-19T18:16:03.840Z,4.97
2022-12-19T18:19:06.123Z,4.40
2022-12-19T18:22:13.342Z,6.00
2022-12-19T18:25:21.219Z,4.60
2022-12-19T18:28:22.932Z,9.45
2022-12-19T18:31:26.062Z,5.72
2022-12-19T18:34:30.745Z,7.28
2022-12-19T18:37:32.990Z,9.43
2022-12-19T18:40:34.769Z,5.05
2022-12-19T18:43:36.232Z,14.55
2022-12-19T18:46:38.577Z,8.18
2022-12-19T18:49:40.129Z,7.88
2022-12-19T18:52:43.569Z,9.23
2022-12-19T18:55:45.109Z,5.45
2022-12-19T18:58:46.626Z,10.40
2022-12-19T19:01:48.208Z,8.63
2022-12-19T19:04:49.779Z,8.35
2022-12-19T19:07:51.852Z,4.93
2022-12-19T19:10:55.240Z,6.18
2022-12-19T19:13:57.009Z,5.60
2022-12-19T19:16:58.583Z,6.40
2022-12-19T19:20:01.308Z,5.07
2022-12-19T19:23:08.326Z,6.35
2022-12-19T19:26:09.844Z,5.32
2022-12-19T19:29:13.461Z,11.80
2022-12-19T19:32:15.074Z,4.32
2022-12-19T19:35:19.395Z,6.13
2022-12-19T19:38:22.520Z,3.83
2022-12-19T19:41:29.459Z,6.20
2022-12-19T19:44:30.978Z,4.72
2022-12-19T19:47:35.968Z,4.20
2022-12-19T19:50:37.896Z,4.95
2022-12-19T19:53:40.260Z,6.60
2022-12-19T19:56:41.807Z,6.60
2022-12-19T19:59:43.413Z,5.75
2022-12-19T20:02:46.180Z,7.18
2022-12-19T20:05:47.861Z,6.18
2022-12-19T20:08:50.337Z,5.03
2022-12-19T20:11:51.833Z,5.20
2022-12-19T20:14:53.367Z,7.32
2022-12-19T20:17:54.884Z,6.43
2022-12-19T20:20:56.460Z,4.55
2022-12-19T20:23:57.941Z,4.20
2022-12-19T20:26:59.542Z,4.60
2022-12-19T20:30:00.973Z,4.55
2022-12-19T20:33:02.420Z,4.88
2022-12-19T20:36:09.732Z,4.53
2022-12-19T20:39:11.349Z,4.93
